createdAt,value
2018-03-11T00:00:09.925Z,989.82
2018-03-11T00:01:09.903Z,989.8
2018-03-11T00:02:09.880Z,989.84
2018-03-11T00:03:09.860Z,989.82
2018-03-11T00:04:09.839Z,989.83
2018-03-11T00:05:09.817Z,989.82
2018-03-11T00:06:09.795Z,989.81
2018-03-11T00:07:09.772Z,989.87
2018-03-11T00:08:09.755Z,989.84
2018-03-11T00:09:09.729Z,989.83
2018-03-11T00:10:09.709Z,989.88
2018-03-11T00:11:09.688Z,989.91
2018-03-11T00:12:09.668Z,989.91
2018-03-11T00:13:09.644Z,989.89
2018-03-11T00:14:09.622Z,989.88
2018-03-11T00:15:09.601Z,989.94
2018-03-11T00:16:09.579Z,989.95
2018-03-11T00:17:09.558Z,989.92
2018-03-11T00:18:09.535Z,989.83
2018-03-11T00:19:09.514Z,989.91
2018-03-11T00:20:09.493Z,989.85
2018-03-11T00:21:09.474Z,989.9
2018-03-11T00:22:09.451Z,989.85
2018-03-11T00:23:09.428Z,989.86
2018-03-11T00:24:09.407Z,989.87
2018-03-11T00:25:09.386Z,989.81
2018-03-11T00:26:09.364Z,989.79
2018-03-11T00:27:09.342Z,989.76
2018-03-11T00:28:09.321Z,989.75
2018-03-11T00:29:09.300Z,989.73
2018-03-11T00:30:09.279Z,989.75
2018-03-11T00:31:09.258Z,989.69
2018-03-11T00:32:09.236Z,989.71
2018-03-11T00:33:09.216Z,989.76
2018-03-11T00:34:09.199Z,989.72
2018-03-11T00:35:09.173Z,989.78
2018-03-11T00:36:09.151Z,989.76
2018-03-11T00:37:09.131Z,989.74
2018-03-11T00:38:09.112Z,989.72
2018-03-11T00:39:09.088Z,989.75
2018-03-11T00:40:09.066Z,989.7
2018-03-11T00:41:09.043Z,989.69
2018-03-11T00:42:09.022Z,989.7
2018-03-11T00:43:09.002Z,989.7
2018-03-11T00:44:08.980Z,989.68
2018-03-11T00:45:08.959Z,989.63
2018-03-11T00:46:08.936Z,989.59
2018-03-11T00:47:08.916Z,989.59
2018-03-11T00:48:08.896Z,989.57
2018-03-11T00:49:08.872Z,989.64
2018-03-11T00:50:08.852Z,989.64
2018-03-11T00:51:08.829Z,989.64
2018-03-11T00:52:08.809Z,989.63
2018-03-11T00:53:08.788Z,989.6
2018-03-11T00:54:08.768Z,989.59
2018-03-11T00:55:08.745Z,989.62
2018-03-11T00:56:08.724Z,989.63
2018-03-11T00:57:08.703Z,989.65
2018-03-11T00:58:08.682Z,989.64
2018-03-11T00:59:08.661Z,989.65
2018-03-11T01:00:08.640Z,989.62
2018-03-11T01:01:08.618Z,989.64
2018-03-11T01:02:08.597Z,989.65
2018-03-11T01:03:08.574Z,989.65
2018-03-11T01:04:08.552Z,989.6
2018-03-11T01:05:08.531Z,989.59
2018-03-11T01:06:08.510Z,989.59
2018-03-11T01:07:08.489Z,989.55
2018-03-11T01:08:08.467Z,989.53
2018-03-11T01:09:08.445Z,989.51
2018-03-11T01:10:08.428Z,989.54
2018-03-11T01:11:08.403Z,989.49
2018-03-11T01:12:08.381Z,989.44
2018-03-11T01:13:08.361Z,989.47
2018-03-11T01:14:08.339Z,989.45
2018-03-11T01:15:08.360Z,989.4
2018-03-11T01:16:08.296Z,989.37
2018-03-11T01:17:08.275Z,989.41
2018-03-11T01:18:08.253Z,989.35
2018-03-11T01:19:08.232Z,989.36
2018-03-11T01:20:08.209Z,989.32
2018-03-11T01:21:08.188Z,989.32
2018-03-11T01:22:08.167Z,989.33
2018-03-11T01:23:08.147Z,989.36
2018-03-11T01:24:08.125Z,989.28
2018-03-11T01:25:08.103Z,989.29
2018-03-11T01:26:08.082Z,989.31
2018-03-11T01:27:08.061Z,989.27
2018-03-11T01:28:08.040Z,989.23
2018-03-11T01:29:08.018Z,989.22
2018-03-11T01:30:07.996Z,989.21
2018-03-11T01:31:07.975Z,989.21
2018-03-11T01:32:07.954Z,989.2
2018-03-11T01:33:07.938Z,989.2
2018-03-11T01:34:07.914Z,989.16
2018-03-11T01:35:07.888Z,989.13
2018-03-11T01:36:07.866Z,989.13
2018-03-11T01:37:07.846Z,989.09
2018-03-11T01:38:07.825Z,989.08
2018-03-11T01:39:07.804Z,989.02
2018-03-11T01:40:07.781Z,989.02
2018-03-11T01:41:07.761Z,988.97
2018-03-11T01:42:07.739Z,988.95
2018-03-11T01:43:07.718Z,988.92
2018-03-11T01:44:07.695Z,988.96
2018-03-11T01:45:07.674Z,988.94
2018-03-11T01:46:07.653Z,988.89
2018-03-11T01:47:07.631Z,988.87
2018-03-11T01:48:07.609Z,988.85
2018-03-11T01:49:07.588Z,988.87
2018-03-11T01:50:07.567Z,988.84
2018-03-11T01:51:07.544Z,988.84
2018-03-11T01:52:07.523Z,988.82
2018-03-11T01:53:07.501Z,988.8
2018-03-11T01:54:07.481Z,988.83
2018-03-11T01:55:07.467Z,988.75
2018-03-11T01:56:07.436Z,988.79
2018-03-11T01:57:07.414Z,988.8
2018-03-11T01:58:07.408Z,988.83
2018-03-11T01:59:07.371Z,988.81
2018-03-11T02:00:07.349Z,988.79
2018-03-11T02:01:07.328Z,988.76
2018-03-11T02:02:07.305Z,988.74
2018-03-11T02:03:07.282Z,988.7
2018-03-11T02:04:07.262Z,988.71
2018-03-11T02:05:07.239Z,988.69
2018-03-11T02:06:07.222Z,988.67
2018-03-11T02:07:07.196Z,988.63
2018-03-11T02:08:07.174Z,988.62
2018-03-11T02:09:07.151Z,988.68
2018-03-11T02:10:07.130Z,988.66
2018-03-11T02:11:07.112Z,988.65
2018-03-11T02:12:07.090Z,988.63
2018-03-11T02:13:07.063Z,988.63
2018-03-11T02:14:07.039Z,988.62
2018-03-11T02:15:07.020Z,988.6
2018-03-11T02:16:06.995Z,988.64
2018-03-11T02:17:06.973Z,988.62
2018-03-11T02:18:06.954Z,988.61
2018-03-11T02:19:06.929Z,988.6
2018-03-11T02:20:06.903Z,988.55
2018-03-11T02:21:06.887Z,988.52
2018-03-11T02:22:06.860Z,988.52
2018-03-11T02:23:06.838Z,988.49
2018-03-11T02:24:06.816Z,988.49
2018-03-11T02:25:06.792Z,988.44
2018-03-11T02:26:06.770Z,988.43
2018-03-11T02:27:06.745Z,988.41
2018-03-11T02:28:06.723Z,988.36
2018-03-11T02:29:06.758Z,988.33
2018-03-11T02:30:06.785Z,988.33
2018-03-11T02:31:06.735Z,988.32
2018-03-11T02:32:06.631Z,988.25
2018-03-11T02:33:06.613Z,988.23
2018-03-11T02:34:06.585Z,988.21
2018-03-11T02:35:06.562Z,988.18
2018-03-11T02:36:06.538Z,988.15
2018-03-11T02:37:06.517Z,988.18
2018-03-11T02:38:06.539Z,988.14
2018-03-11T02:39:06.470Z,988.12
2018-03-11T02:40:06.447Z,988.13
2018-03-11T02:41:06.423Z,988.05
2018-03-11T02:42:06.399Z,988.07
2018-03-11T02:43:06.455Z,988.05
2018-03-11T02:44:06.353Z,988.04
2018-03-11T02:45:06.332Z,988.01
2018-03-11T02:46:06.307Z,988.03
2018-03-11T02:47:06.287Z,988
2018-03-11T02:48:06.261Z,988.02
2018-03-11T02:49:06.236Z,987.96
2018-03-11T02:50:06.219Z,987.96
2018-03-11T02:51:06.190Z,987.94
2018-03-11T02:52:06.166Z,987.88
2018-03-11T02:53:06.141Z,987.85
2018-03-11T02:54:06.123Z,987.86
2018-03-11T02:55:06.096Z,987.81
2018-03-11T02:56:06.073Z,987.8
2018-03-11T02:57:06.050Z,987.82
2018-03-11T02:58:06.026Z,987.77
2018-03-11T02:59:06.002Z,987.77
2018-03-11T03:00:05.978Z,987.8
2018-03-11T03:01:05.955Z,987.76
2018-03-11T03:02:05.930Z,987.75
2018-03-11T03:03:05.906Z,987.75
2018-03-11T03:04:05.883Z,987.74
2018-03-11T03:05:05.859Z,987.73
2018-03-11T03:06:05.842Z,987.76
2018-03-11T03:07:05.813Z,987.74
2018-03-11T03:08:05.788Z,987.72
2018-03-11T03:09:05.764Z,987.72
2018-03-11T03:10:05.742Z,987.72
2018-03-11T03:11:05.718Z,987.7
2018-03-11T03:12:05.694Z,987.67
2018-03-11T03:13:05.671Z,987.69
2018-03-11T03:14:05.647Z,987.67
2018-03-11T03:15:05.622Z,987.67
2018-03-11T03:16:05.599Z,987.65
2018-03-11T03:17:05.574Z,987.61
2018-03-11T03:18:05.552Z,987.59
2018-03-11T03:19:05.528Z,987.61
2018-03-11T03:20:05.506Z,987.52
2018-03-11T03:21:05.480Z,987.52
2018-03-11T03:22:05.455Z,987.5
2018-03-11T03:23:05.436Z,987.46
2018-03-11T03:24:05.409Z,987.49
2018-03-11T03:25:05.384Z,987.47
2018-03-11T03:26:05.368Z,987.45
2018-03-11T03:27:05.337Z,987.46
2018-03-11T03:28:05.313Z,987.42
2018-03-11T03:29:05.289Z,987.42
2018-03-11T03:30:05.266Z,987.46
2018-03-11T03:31:05.242Z,987.43
2018-03-11T03:32:05.217Z,987.43
2018-03-11T03:33:05.192Z,987.45
2018-03-11T03:34:05.169Z,987.46
2018-03-11T03:35:05.145Z,987.44
2018-03-11T03:36:05.121Z,987.41
2018-03-11T03:37:05.097Z,987.43
2018-03-11T03:38:05.072Z,987.4
2018-03-11T03:39:05.049Z,987.37
2018-03-11T03:40:05.025Z,987.37
2018-03-11T03:41:05.001Z,987.37
2018-03-11T03:42:04.977Z,987.38
2018-03-11T03:43:04.953Z,987.37
2018-03-11T03:44:04.933Z,987.38
2018-03-11T03:45:04.904Z,987.36
2018-03-11T03:46:04.879Z,987.37
2018-03-11T03:47:04.859Z,987.36
2018-03-11T03:48:04.832Z,987.32
2018-03-11T03:49:04.808Z,987.35
2018-03-11T03:50:04.783Z,987.34
2018-03-11T03:51:04.760Z,987.31
2018-03-11T03:52:04.736Z,987.32
2018-03-11T03:53:04.717Z,987.28
2018-03-11T03:54:04.689Z,987.3
2018-03-11T03:55:04.664Z,987.27
2018-03-11T03:56:04.640Z,987.23
2018-03-11T03:57:04.618Z,987.21
2018-03-11T03:58:04.591Z,987.21
2018-03-11T03:59:04.567Z,987.18
2018-03-11T04:00:04.542Z,987.16
2018-03-11T04:01:04.519Z,987.15
2018-03-11T04:02:04.494Z,987.13
2018-03-11T04:03:04.471Z,987.1
2018-03-11T04:04:04.446Z,987.1
2018-03-11T04:05:04.422Z,987.08
2018-03-11T04:06:04.404Z,987.03
2018-03-11T04:07:04.384Z,987.07
2018-03-11T04:08:04.350Z,986.99
2018-03-11T04:09:04.331Z,986.94
2018-03-11T04:10:04.303Z,986.92
2018-03-11T04:11:04.281Z,986.95
2018-03-11T04:12:04.258Z,986.94
2018-03-11T04:13:04.227Z,986.96
2018-03-11T04:14:04.205Z,986.96
2018-03-11T04:15:04.231Z,986.89
2018-03-11T04:16:04.165Z,986.9
2018-03-11T04:17:04.143Z,986.91
2018-03-11T04:18:04.108Z,986.85
2018-03-11T04:19:04.090Z,986.84
2018-03-11T04:20:04.066Z,986.83
2018-03-11T04:21:04.041Z,986.8
2018-03-11T04:22:04.011Z,986.83
2018-03-11T04:23:03.988Z,986.75
2018-03-11T04:24:03.963Z,986.73
2018-03-11T04:25:03.944Z,986.7
2018-03-11T04:26:03.919Z,986.67
2018-03-11T04:27:03.889Z,986.68
2018-03-11T04:28:03.865Z,986.66
2018-03-11T04:29:03.840Z,986.68
2018-03-11T04:30:03.817Z,986.69
2018-03-11T04:31:03.800Z,986.7
2018-03-11T04:32:03.773Z,986.72
2018-03-11T04:33:03.744Z,986.74
2018-03-11T04:34:03.726Z,986.72
2018-03-11T04:35:03.695Z,986.7
2018-03-11T04:36:03.675Z,986.69
2018-03-11T04:37:03.648Z,986.66
2018-03-11T04:38:03.630Z,986.66
2018-03-11T04:39:03.604Z,986.65
2018-03-11T04:40:03.581Z,986.63
2018-03-11T04:41:03.552Z,986.6
2018-03-11T04:42:03.527Z,986.55
2018-03-11T04:43:03.502Z,986.53
2018-03-11T04:44:03.484Z,986.51
2018-03-11T04:45:03.454Z,986.52
2018-03-11T04:46:03.429Z,986.54
2018-03-11T04:47:03.405Z,986.53
2018-03-11T04:48:03.388Z,986.48
2018-03-11T04:49:03.359Z,986.49
2018-03-11T04:50:03.331Z,986.43
2018-03-11T04:51:03.313Z,986.46
2018-03-11T04:52:03.287Z,986.4
2018-03-11T04:53:03.258Z,986.4
2018-03-11T04:54:03.234Z,986.46
2018-03-11T04:55:03.210Z,986.41
2018-03-11T04:56:03.184Z,986.41
2018-03-11T04:57:03.162Z,986.4
2018-03-11T04:58:03.137Z,986.36
2018-03-11T04:59:03.112Z,986.35
2018-03-11T05:00:03.094Z,986.29
2018-03-11T05:01:03.063Z,986.27
2018-03-11T05:02:03.038Z,986.27
2018-03-11T05:03:03.015Z,986.26
2018-03-11T05:04:02.992Z,986.23
2018-03-11T05:05:02.965Z,986.19
2018-03-11T05:06:02.943Z,986.15
2018-03-11T05:07:02.920Z,986.11
2018-03-11T05:08:02.892Z,986.07
2018-03-11T05:09:02.868Z,986.04
2018-03-11T05:10:02.852Z,986.04
2018-03-11T05:11:02.821Z,986.04
2018-03-11T05:12:02.796Z,986.01
2018-03-11T05:13:02.770Z,986
2018-03-11T05:14:02.747Z,985.95
2018-03-11T05:15:02.722Z,985.99
2018-03-11T05:16:02.802Z,985.97
2018-03-11T05:17:02.674Z,985.92
2018-03-11T05:18:02.650Z,985.83
2018-03-11T05:19:02.626Z,985.8
2018-03-11T05:20:02.600Z,985.78
2018-03-11T05:21:02.575Z,985.77
2018-03-11T05:22:02.553Z,985.79
2018-03-11T05:23:02.527Z,985.8
2018-03-11T05:24:02.504Z,985.78
2018-03-11T05:25:02.480Z,985.73
2018-03-11T05:26:02.454Z,985.71
2018-03-11T05:27:02.431Z,985.75
2018-03-11T05:28:02.408Z,985.8
2018-03-11T05:29:02.384Z,985.81
2018-03-11T05:30:02.359Z,985.86
2018-03-11T05:31:02.335Z,985.87
2018-03-11T05:32:02.311Z,985.9
2018-03-11T05:33:02.287Z,985.91
2018-03-11T05:34:02.265Z,985.9
2018-03-11T05:35:02.239Z,985.89
2018-03-11T05:36:02.214Z,985.88
2018-03-11T05:37:02.191Z,985.82
2018-03-11T05:38:02.166Z,985.8
2018-03-11T05:39:02.143Z,985.77
2018-03-11T05:40:02.118Z,985.74
2018-03-11T05:41:02.094Z,985.67
2018-03-11T05:42:02.069Z,985.65
2018-03-11T05:43:02.047Z,985.62
2018-03-11T05:44:02.023Z,985.55
2018-03-11T05:45:01.998Z,985.52
2018-03-11T05:46:01.974Z,985.46
2018-03-11T05:47:01.951Z,985.43
2018-03-11T05:48:01.926Z,985.39
2018-03-11T05:49:01.908Z,985.38
2018-03-11T05:50:01.877Z,985.37
2018-03-11T05:51:01.855Z,985.33
2018-03-11T05:52:01.830Z,985.28
2018-03-11T05:53:01.806Z,985.29
2018-03-11T05:54:01.782Z,985.25
2018-03-11T05:55:01.760Z,985.29
2018-03-11T05:56:01.733Z,985.26
2018-03-11T05:57:01.711Z,985.28
2018-03-11T05:58:01.686Z,985.35
2018-03-11T05:59:01.660Z,985.35
2018-03-11T06:00:01.638Z,985.41
2018-03-11T06:01:01.614Z,985.49
2018-03-11T06:02:01.594Z,985.47
2018-03-11T06:03:01.565Z,985.47
2018-03-11T06:04:01.542Z,985.46
2018-03-11T06:05:01.519Z,985.46
2018-03-11T06:06:01.494Z,985.48
2018-03-11T06:07:01.469Z,985.52
2018-03-11T06:08:01.450Z,985.51
2018-03-11T06:09:01.422Z,985.51
2018-03-11T06:10:01.397Z,985.49
2018-03-11T06:11:01.374Z,985.56
2018-03-11T06:12:01.350Z,985.51
2018-03-11T06:13:01.325Z,985.53
2018-03-11T06:14:01.302Z,985.56
2018-03-11T06:15:01.281Z,985.52
2018-03-11T06:16:01.255Z,985.57
2018-03-11T06:17:01.234Z,985.58
2018-03-11T06:18:01.205Z,985.6
2018-03-11T06:19:01.183Z,985.54
2018-03-11T06:20:01.160Z,985.5
2018-03-11T06:21:01.136Z,985.5
2018-03-11T06:22:01.115Z,985.48
2018-03-11T06:23:01.089Z,985.41
2018-03-11T06:24:01.065Z,985.37
2018-03-11T06:25:01.043Z,985.36
2018-03-11T06:26:01.018Z,985.32
2018-03-11T06:27:00.997Z,985.29
2018-03-11T06:28:00.971Z,985.27
2018-03-11T06:29:00.947Z,985.26
2018-03-11T06:30:00.926Z,985.19
2018-03-11T06:31:00.901Z,985.23
2018-03-11T06:32:00.880Z,985.23
2018-03-11T06:33:00.854Z,985.19
2018-03-11T06:34:00.835Z,985.14
2018-03-11T06:35:00.813Z,985.14
2018-03-11T06:36:00.782Z,985.15
2018-03-11T06:37:00.760Z,985.15
2018-03-11T06:38:00.736Z,985.14
2018-03-11T06:39:00.778Z,985.11
2018-03-11T06:40:00.689Z,985.11
2018-03-11T06:41:00.666Z,985.11
2018-03-11T06:42:00.642Z,985.15
2018-03-11T06:43:00.618Z,985.09
2018-03-11T06:44:00.596Z,985.08
2018-03-11T06:45:00.574Z,985.13
2018-03-11T06:46:00.551Z,985.15
2018-03-11T06:47:00.529Z,985.15
2018-03-11T06:48:00.504Z,985.17
2018-03-11T06:49:00.481Z,985.2
2018-03-11T06:50:00.459Z,985.23
2018-03-11T06:51:00.437Z,985.18
2018-03-11T06:52:00.413Z,985.18
2018-03-11T06:53:00.390Z,985.14
2018-03-11T06:54:00.366Z,985.14
2018-03-11T06:55:00.345Z,985.12
2018-03-11T06:56:00.339Z,985.13
2018-03-11T06:57:00.299Z,985.09
2018-03-11T06:58:00.276Z,985.08
2018-03-11T06:59:00.253Z,985.08
2018-03-11T07:00:00.230Z,985.06
2018-03-11T07:01:00.207Z,985.06
2018-03-11T07:02:00.185Z,985.01
2018-03-11T07:03:00.162Z,984.95
2018-03-11T07:04:00.140Z,984.92
2018-03-11T07:05:00.118Z,984.9
2018-03-11T07:06:00.095Z,984.84
2018-03-11T07:07:00.073Z,984.85
2018-03-11T07:08:00.051Z,984.84
2018-03-11T07:09:00.028Z,984.86
2018-03-11T07:10:00.005Z,984.83
2018-03-11T07:10:59.984Z,984.84
2018-03-11T07:11:59.963Z,984.85
2018-03-11T07:12:59.941Z,984.84
2018-03-11T07:13:59.917Z,984.81
2018-03-11T07:14:59.896Z,984.83
2018-03-11T07:15:59.873Z,984.87
2018-03-11T07:16:59.849Z,984.88
2018-03-11T07:17:59.828Z,984.9
2018-03-11T07:18:59.806Z,984.91
2018-03-11T07:19:59.784Z,984.95
2018-03-11T07:20:59.761Z,984.97
2018-03-11T07:21:59.742Z,984.95
2018-03-11T07:22:59.718Z,984.95
2018-03-11T07:23:59.696Z,984.88
2018-03-11T07:24:59.679Z,984.93
2018-03-11T07:25:59.653Z,984.85
2018-03-11T07:26:59.630Z,984.84
2018-03-11T07:27:59.610Z,984.8
2018-03-11T07:28:59.589Z,984.82
2018-03-11T07:29:59.566Z,984.81
2018-03-11T07:30:59.546Z,984.87
2018-03-11T07:31:59.524Z,984.83
2018-03-11T07:32:59.502Z,984.82
2018-03-11T07:33:59.480Z,984.79
2018-03-11T07:34:59.459Z,984.76
2018-03-11T07:35:59.507Z,984.8
2018-03-11T07:36:59.516Z,984.77
2018-03-11T07:37:59.394Z,984.8
2018-03-11T07:38:59.373Z,984.72
2018-03-11T07:39:59.352Z,984.73
2018-03-11T07:40:59.330Z,984.69
2018-03-11T07:41:59.310Z,984.65
2018-03-11T07:42:59.289Z,984.64
2018-03-11T07:43:59.267Z,984.68
2018-03-11T07:44:59.244Z,984.72
2018-03-11T07:45:59.222Z,984.76
2018-03-11T07:46:59.202Z,984.78
2018-03-11T07:47:59.181Z,984.76
2018-03-11T07:48:59.158Z,984.8
2018-03-11T07:49:59.137Z,984.77
2018-03-11T07:50:59.117Z,984.77
2018-03-11T07:51:59.097Z,984.83
2018-03-11T07:52:59.074Z,984.78
2018-03-11T07:53:59.053Z,984.79
2018-03-11T07:54:59.032Z,984.81
2018-03-11T07:55:59.013Z,984.83
2018-03-11T07:56:58.990Z,984.88
2018-03-11T07:57:58.968Z,984.78
2018-03-11T07:58:58.948Z,984.79
2018-03-11T07:59:58.926Z,984.75
2018-03-11T08:00:58.906Z,984.75
2018-03-11T08:01:58.886Z,984.77
2018-03-11T08:02:58.863Z,984.77
2018-03-11T08:03:58.843Z,984.74
2018-03-11T08:04:58.822Z,984.78
2018-03-11T08:05:58.800Z,984.8
2018-03-11T08:06:58.780Z,984.83
2018-03-11T08:07:58.759Z,984.85
2018-03-11T08:08:58.740Z,984.88
2018-03-11T08:09:58.718Z,984.87
2018-03-11T08:10:58.697Z,984.83
2018-03-11T08:11:58.677Z,984.82
2018-03-11T08:12:58.656Z,984.85
2018-03-11T08:13:58.635Z,984.84
2018-03-11T08:14:58.615Z,984.86
2018-03-11T08:15:58.599Z,984.83
2018-03-11T08:16:58.577Z,984.87
2018-03-11T08:17:58.554Z,984.91
2018-03-11T08:18:58.534Z,984.9
2018-03-11T08:19:58.513Z,984.93
2018-03-11T08:20:58.495Z,984.94
2018-03-11T08:21:58.472Z,984.91
2018-03-11T08:22:58.453Z,984.94
2018-03-11T08:23:58.433Z,984.91
2018-03-11T08:24:58.413Z,984.94
2018-03-11T08:25:58.393Z,984.94
2018-03-11T08:26:58.373Z,984.92
2018-03-11T08:27:58.353Z,984.92
2018-03-11T08:28:58.515Z,984.97
2018-03-11T08:29:58.481Z,984.97
2018-03-11T08:30:58.493Z,984.95
2018-03-11T08:31:58.274Z,984.95
2018-03-11T08:32:58.251Z,984.92
2018-03-11T08:33:58.230Z,984.94
2018-03-11T08:34:58.262Z,985
2018-03-11T08:35:58.193Z,984.92
2018-03-11T08:36:58.172Z,985.03
2018-03-11T08:37:58.151Z,984.99
2018-03-11T08:38:58.133Z,985.01
2018-03-11T08:39:58.115Z,985.04
2018-03-11T08:40:58.091Z,985.03
2018-03-11T08:41:58.072Z,984.97
2018-03-11T08:42:58.060Z,985
2018-03-11T08:43:58.034Z,984.97
2018-03-11T08:44:58.012Z,984.95
2018-03-11T08:45:57.991Z,984.95
2018-03-11T08:46:57.970Z,984.94
2018-03-11T08:47:57.952Z,984.91
2018-03-11T08:48:57.931Z,985.01
2018-03-11T08:49:57.912Z,984.9
2018-03-11T08:50:57.892Z,984.96
2018-03-11T08:51:57.872Z,984.97
2018-03-11T08:52:57.851Z,984.89
2018-03-11T08:53:57.883Z,984.91
2018-03-11T08:54:57.811Z,984.96
2018-03-11T08:55:57.801Z,984.91
2018-03-11T08:56:57.774Z,984.89
2018-03-11T08:57:57.755Z,984.87
2018-03-11T08:58:57.736Z,984.82
2018-03-11T08:59:57.721Z,984.84
2018-03-11T09:00:57.699Z,984.79
2018-03-11T09:01:57.685Z,984.83
2018-03-11T09:02:57.661Z,984.86
2018-03-11T09:03:57.655Z,984.92
2018-03-11T09:04:57.648Z,984.94
2018-03-11T09:05:57.609Z,984.91
2018-03-11T09:06:57.591Z,984.89
2018-03-11T09:07:57.574Z,984.91
2018-03-11T09:08:57.558Z,984.89
2018-03-11T09:09:57.544Z,984.86
2018-03-11T09:10:57.524Z,984.85
2018-03-11T09:11:57.508Z,984.88
2018-03-11T09:12:57.491Z,984.82
2018-03-11T09:13:57.474Z,984.84
2018-03-11T09:14:57.457Z,984.76
2018-03-11T09:15:57.441Z,984.78
2018-03-11T09:16:57.423Z,984.75
2018-03-11T09:17:57.407Z,984.78
2018-03-11T09:18:57.390Z,984.77
2018-03-11T09:19:57.373Z,984.75
2018-03-11T09:20:57.357Z,984.76
2018-03-11T09:21:57.340Z,984.77
2018-03-11T09:22:57.324Z,984.67
2018-03-11T09:23:57.306Z,984.66
2018-03-11T09:24:57.289Z,984.71
2018-03-11T09:25:57.274Z,984.72
2018-03-11T09:26:57.257Z,984.72
2018-03-11T09:27:57.239Z,984.75
2018-03-11T09:28:57.222Z,984.73
2018-03-11T09:29:57.206Z,984.7
2018-03-11T09:30:57.189Z,984.7
2018-03-11T09:31:57.171Z,984.71
2018-03-11T09:32:57.153Z,984.69
2018-03-11T09:33:57.137Z,984.72
2018-03-11T09:34:57.118Z,984.68
2018-03-11T09:35:57.101Z,984.7
2018-03-11T09:36:57.084Z,984.67
2018-03-11T09:37:57.067Z,984.64
2018-03-11T09:38:57.048Z,984.65
2018-03-11T09:39:57.033Z,984.67
2018-03-11T09:40:57.014Z,984.63
2018-03-11T09:41:56.995Z,984.61
2018-03-11T09:42:56.977Z,984.54
2018-03-11T09:43:56.960Z,984.57
2018-03-11T09:44:56.942Z,984.62
2018-03-11T09:45:56.923Z,984.53
2018-03-11T09:46:56.905Z,984.54
2018-03-11T09:47:56.887Z,984.46
2018-03-11T09:48:56.869Z,984.49
2018-03-11T09:49:56.852Z,984.45
2018-03-11T09:50:56.834Z,984.38
2018-03-11T09:51:56.814Z,984.46
2018-03-11T09:52:56.796Z,984.39
2018-03-11T09:53:56.779Z,984.47
2018-03-11T09:54:56.760Z,984.41
2018-03-11T09:55:56.744Z,984.38
2018-03-11T09:56:56.821Z,984.44
2018-03-11T09:57:56.707Z,984.44
2018-03-11T09:58:56.691Z,984.41
2018-03-11T09:59:56.673Z,984.33
2018-03-11T10:00:56.657Z,984.27
2018-03-11T10:01:56.640Z,984.41
2018-03-11T10:02:56.623Z,984.4
2018-03-11T10:03:56.605Z,984.48
2018-03-11T10:04:56.587Z,984.39
2018-03-11T10:05:56.571Z,984.42
2018-03-11T10:06:56.553Z,984.36
2018-03-11T10:07:56.536Z,984.35
2018-03-11T10:08:56.521Z,984.37
2018-03-11T10:09:56.500Z,984.35
2018-03-11T10:10:56.481Z,984.41
2018-03-11T10:11:56.826Z,984.42
2018-03-11T10:12:56.449Z,984.45
2018-03-11T10:13:56.433Z,984.46
2018-03-11T10:14:56.417Z,984.49
2018-03-11T10:15:56.398Z,984.53
2018-03-11T10:16:56.382Z,984.41
2018-03-11T10:17:56.365Z,984.48
2018-03-11T10:18:56.346Z,984.42
2018-03-11T10:19:56.330Z,984.38
2018-03-11T10:20:56.315Z,984.36
2018-03-11T10:21:56.358Z,984.37
2018-03-11T10:22:56.283Z,984.35
2018-03-11T10:23:56.268Z,984.33
2018-03-11T10:24:56.251Z,984.33
2018-03-11T10:25:56.236Z,984.28
2018-03-11T10:26:56.220Z,984.25
2018-03-11T10:27:56.205Z,984.24
2018-03-11T10:28:56.190Z,984.33
2018-03-11T10:29:56.176Z,984.3
2018-03-11T10:30:56.159Z,984.25
2018-03-11T10:31:56.144Z,984.26
2018-03-11T10:32:56.128Z,984.16
2018-03-11T10:33:56.114Z,984.27
2018-03-11T10:34:56.104Z,984.15
2018-03-11T10:35:56.085Z,984.19
2018-03-11T10:36:56.071Z,984.25
2018-03-11T10:37:56.056Z,984.27
2018-03-11T10:38:56.042Z,984.23
2018-03-11T10:39:56.029Z,984.23
2018-03-11T10:40:56.016Z,984.18
2018-03-11T10:41:56.000Z,984.09
2018-03-11T10:42:55.986Z,984.08
2018-03-11T10:43:55.972Z,984.11
2018-03-11T10:44:55.959Z,984.12
2018-03-11T10:45:55.944Z,984.26
2018-03-11T10:46:55.932Z,984.14
2018-03-11T10:47:55.917Z,984.13
2018-03-11T10:48:55.904Z,984.16
2018-03-11T10:49:55.891Z,984.11
2018-03-11T10:50:55.986Z,984.07
2018-03-11T10:51:55.865Z,984.12
2018-03-11T10:52:55.850Z,984.16
2018-03-11T10:53:55.837Z,984.1
2018-03-11T10:54:55.825Z,984.1
2018-03-11T10:55:55.811Z,984.04
2018-03-11T10:56:55.798Z,984.03
2018-03-11T10:57:55.784Z,983.98
2018-03-11T10:58:55.771Z,984.04
2018-03-11T10:59:55.757Z,983.95
2018-03-11T11:00:55.747Z,983.85
2018-03-11T11:01:55.731Z,983.91
2018-03-11T11:02:55.717Z,983.89
2018-03-11T11:03:55.703Z,983.97
2018-03-11T11:04:55.689Z,983.95
2018-03-11T11:05:55.674Z,983.97
2018-03-11T11:06:55.662Z,984
2018-03-11T11:07:55.649Z,984.05
2018-03-11T11:08:55.635Z,983.95
2018-03-11T11:09:55.621Z,984.04
2018-03-11T11:10:55.607Z,984.06
2018-03-11T11:11:55.595Z,984.09
2018-03-11T11:12:55.581Z,984.02
2018-03-11T11:13:55.567Z,984.02
2018-03-11T11:14:55.554Z,983.96
2018-03-11T11:15:55.540Z,984.08
2018-03-11T11:16:55.526Z,984.13
2018-03-11T11:17:55.515Z,984.11
2018-03-11T11:18:55.499Z,984.11
2018-03-11T11:19:55.487Z,984.12
2018-03-11T11:20:55.472Z,984.04
2018-03-11T11:21:55.461Z,984.11
2018-03-11T11:22:55.447Z,984.09
2018-03-11T11:23:55.533Z,984.07
2018-03-11T11:24:55.420Z,984.11
2018-03-11T11:25:55.407Z,984.21
2018-03-11T11:26:55.394Z,984.09
2018-03-11T11:27:55.381Z,984.06
2018-03-11T11:28:55.368Z,983.98
2018-03-11T11:29:55.354Z,984.07
2018-03-11T11:30:55.342Z,984.01
2018-03-11T11:31:55.327Z,984
2018-03-11T11:32:55.315Z,984.09
2018-03-11T11:33:55.301Z,984.11
2018-03-11T11:34:55.293Z,984.16
2018-03-11T11:35:55.274Z,984.04
2018-03-11T11:36:55.261Z,984.05
2018-03-11T11:37:55.248Z,984.06
2018-03-11T11:38:55.241Z,984.03
2018-03-11T11:39:55.219Z,984.02
2018-03-11T11:40:55.204Z,984.07
2018-03-11T11:41:55.191Z,984.07
2018-03-11T11:42:55.175Z,984.1
2018-03-11T11:43:55.162Z,984.11
2018-03-11T11:44:55.148Z,984.07
2018-03-11T11:45:55.131Z,984.06
2018-03-11T11:46:55.117Z,984.09
2018-03-11T11:47:55.104Z,984.18
2018-03-11T11:48:55.088Z,984.18
2018-03-11T11:49:55.081Z,984.1
2018-03-11T11:50:55.058Z,984.11
2018-03-11T11:51:55.044Z,984.11
2018-03-11T11:52:55.029Z,984.09
2018-03-11T11:53:55.012Z,984.09
2018-03-11T11:54:54.997Z,984.11
2018-03-11T11:55:54.981Z,984.19
2018-03-11T11:56:54.969Z,984.16
2018-03-11T11:57:54.950Z,984.13
2018-03-11T11:58:54.934Z,984.1
2018-03-11T11:59:54.917Z,984.12
2018-03-11T12:00:54.901Z,984.14
2018-03-11T12:01:54.885Z,984.17
2018-03-11T12:02:54.870Z,984.15
2018-03-11T12:03:54.903Z,984.19
2018-03-11T12:04:54.836Z,984.16
2018-03-11T12:05:54.820Z,984.12
2018-03-11T12:06:54.804Z,984.18
2018-03-11T12:07:54.787Z,984.18
2018-03-11T12:08:54.769Z,984.25
2018-03-11T12:09:54.754Z,984.15
2018-03-11T12:10:54.736Z,984.2
2018-03-11T12:11:54.718Z,984.23
2018-03-11T12:12:54.702Z,984.21
2018-03-11T12:13:54.763Z,984.16
2018-03-11T12:14:54.668Z,984.17
2018-03-11T12:15:54.651Z,984.14
2018-03-11T12:16:54.634Z,984.06
2018-03-11T12:17:54.620Z,984.08
2018-03-11T12:18:54.599Z,984.01
2018-03-11T12:19:54.581Z,984.05
2018-03-11T12:20:54.564Z,984.01
2018-03-11T12:21:54.547Z,984.01
2018-03-11T12:22:54.528Z,983.98
2018-03-11T12:23:54.511Z,984
2018-03-11T12:24:54.494Z,983.97
2018-03-11T12:25:54.476Z,983.95
2018-03-11T12:26:54.458Z,983.97
2018-03-11T12:27:54.440Z,983.97
2018-03-11T12:28:54.422Z,983.87
2018-03-11T12:29:54.405Z,983.91
2018-03-11T12:30:54.388Z,983.88